sensor_id;sensor_type;location;lat;lon;timestamp;P1;durP1;ratioP1;P2;durP2;ratioP2
17065;SDS011;23120;52.336;21.182;2022-08-19T00:00:48;10.33;;;9.40;;
17065;SDS011;23120;52.336;21.182;2022-08-19T00:03:15;10.93;;;9.77;;
17065;SDS011;23120;52.336;21.182;2022-08-19T00:05:43;11.47;;;10.37;;
17065;SDS011;23120;52.336;21.182;2022-08-19T00:08:10;10.73;;;9.73;;
17065;SDS011;23120;52.336;21.182;2022-08-19T00:10:37;9.83;;;8.90;;
17065;SDS011;23120;52.336;21.182;2022-08-19T00:13:04;11.40;;;9.60;;
17065;SDS011;23120;52.336;21.182;2022-08-19T00:15:31;10.17;;;9.20;;
17065;SDS011;23120;52.336;21.182;2022-08-19T00:17:58;11.37;;;10.17;;
17065;SDS011;23120;52.336;21.182;2022-08-19T00:20:25;10.53;;;9.53;;
17065;SDS011;23120;52.336;21.182;2022-08-19T00:22:53;10.27;;;8.90;;
17065;SDS011;23120;52.336;21.182;2022-08-19T00:25:20;10.87;;;9.73;;
17065;SDS011;23120;52.336;21.182;2022-08-19T00:27:47;10.37;;;9.40;;
17065;SDS011;23120;52.336;21.182;2022-08-19T00:30:14;10.63;;;9.60;;
17065;SDS011;23120;52.336;21.182;2022-08-19T00:32:41;10.30;;;9.00;;
17065;SDS011;23120;52.336;21.182;2022-08-19T00:35:08;10.27;;;9.27;;
17065;SDS011;23120;52.336;21.182;2022-08-19T00:37:35;10.23;;;9.20;;
17065;SDS011;23120;52.336;21.182;2022-08-19T00:40:05;10.90;;;9.80;;
17065;SDS011;23120;52.336;21.182;2022-08-19T00:42:33;11.40;;;10.30;;
17065;SDS011;23120;52.336;21.182;2022-08-19T00:44:59;11.03;;;9.83;;
17065;SDS011;23120;52.336;21.182;2022-08-19T00:47:26;10.53;;;9.57;;
17065;SDS011;23120;52.336;21.182;2022-08-19T00:49:54;11.30;;;10.30;;
17065;SDS011;23120;52.336;21.182;2022-08-19T00:52:23;11.07;;;10.07;;
17065;SDS011;23120;52.336;21.182;2022-08-19T00:54:54;10.30;;;9.37;;
17065;SDS011;23120;52.336;21.182;2022-08-19T00:57:24;10.67;;;9.60;;
17065;SDS011;23120;52.336;21.182;2022-08-19T00:59:54;10.27;;;9.37;;
17065;SDS011;23120;52.336;21.182;2022-08-19T01:02:24;10.00;;;9.07;;
17065;SDS011;23120;52.336;21.182;2022-08-19T01:04:52;10.73;;;9.73;;
17065;SDS011;23120;52.336;21.182;2022-08-19T01:07:19;11.33;;;9.97;;
17065;SDS011;23120;52.336;21.182;2022-08-19T01:09:46;10.60;;;9.77;;
17065;SDS011;23120;52.336;21.182;2022-08-19T01:12:13;10.43;;;9.33;;
17065;SDS011;23120;52.336;21.182;2022-08-19T01:14:42;10.87;;;9.77;;
17065;SDS011;23120;52.336;21.182;2022-08-19T01:17:09;11.23;;;9.97;;
17065;SDS011;23120;52.336;21.182;2022-08-19T01:19:38;11.23;;;10.13;;
17065;SDS011;23120;52.336;21.182;2022-08-19T01:22:08;10.03;;;9.13;;
17065;SDS011;23120;52.336;21.182;2022-08-19T01:24:40;12.67;;;9.70;;
17065;SDS011;23120;52.336;21.182;2022-08-19T01:27:07;10.87;;;9.80;;
17065;SDS011;23120;52.336;21.182;2022-08-19T01:29:36;13.80;;;10.13;;
17065;SDS011;23120;52.336;21.182;2022-08-19T01:32:04;10.00;;;8.93;;
17065;SDS011;23120;52.336;21.182;2022-08-19T01:34:31;11.37;;;9.47;;
17065;SDS011;23120;52.336;21.182;2022-08-19T01:36:59;10.73;;;9.83;;
17065;SDS011;23120;52.336;21.182;2022-08-19T01:39:27;11.13;;;10.03;;
17065;SDS011;23120;52.336;21.182;2022-08-19T01:41:55;10.67;;;9.77;;
17065;SDS011;23120;52.336;21.182;2022-08-19T01:44:22;10.50;;;9.60;;
17065;SDS011;23120;52.336;21.182;2022-08-19T01:46:50;10.47;;;9.63;;
17065;SDS011;23120;52.336;21.182;2022-08-19T01:49:18;10.47;;;9.47;;
17065;SDS011;23120;52.336;21.182;2022-08-19T01:51:48;10.23;;;9.33;;
17065;SDS011;23120;52.336;21.182;2022-08-19T01:54:16;11.47;;;10.23;;
17065;SDS011;23120;52.336;21.182;2022-08-19T01:56:45;10.77;;;9.77;;
17065;SDS011;23120;52.336;21.182;2022-08-19T01:59:15;10.30;;;9.03;;
17065;SDS011;23120;52.336;21.182;2022-08-19T02:01:46;12.37;;;9.90;;
17065;SDS011;23120;52.336;21.182;2022-08-19T02:04:13;11.33;;;9.57;;
17065;SDS011;23120;52.336;21.182;2022-08-19T02:06:41;10.90;;;9.83;;
17065;SDS011;23120;52.336;21.182;2022-08-19T02:09:08;10.10;;;9.23;;
17065;SDS011;23120;52.336;21.182;2022-08-19T02:11:35;11.57;;;9.80;;
17065;SDS011;23120;52.336;21.182;2022-08-19T02:14:05;9.77;;;9.03;;
17065;SDS011;23120;52.336;21.182;2022-08-19T02:16:35;10.37;;;9.40;;
17065;SDS011;23120;52.336;21.182;2022-08-19T02:19:03;10.37;;;9.47;;
17065;SDS011;23120;52.336;21.182;2022-08-19T02:21:31;9.80;;;9.00;;
17065;SDS011;23120;52.336;21.182;2022-08-19T02:23:58;10.80;;;9.70;;
17065;SDS011;23120;52.336;21.182;2022-08-19T02:26:25;11.90;;;10.77;;
17065;SDS011;23120;52.336;21.182;2022-08-19T02:28:52;11.67;;;9.53;;
17065;SDS011;23120;52.336;21.182;2022-08-19T02:31:21;10.80;;;9.80;;
17065;SDS011;23120;52.336;21.182;2022-08-19T02:33:51;10.77;;;9.77;;
17065;SDS011;23120;52.336;21.182;2022-08-19T02:36:18;10.67;;;9.57;;
17065;SDS011;23120;52.336;21.182;2022-08-19T02:38:45;11.27;;;9.47;;
17065;SDS011;23120;52.336;21.182;2022-08-19T02:41:13;12.47;;;9.10;;
17065;SDS011;23120;52.336;21.182;2022-08-19T02:43:41;10.20;;;9.30;;
17065;SDS011;23120;52.336;21.182;2022-08-19T02:46:13;10.63;;;9.63;;
17065;SDS011;23120;52.336;21.182;2022-08-19T02:48:42;10.87;;;9.87;;
17065;SDS011;23120;52.336;21.182;2022-08-19T02:51:16;12.53;;;10.20;;
17065;SDS011;23120;52.336;21.182;2022-08-19T02:53:44;12.27;;;10.47;;
17065;SDS011;23120;52.336;21.182;2022-08-19T02:56:11;15.53;;;10.67;;
17065;SDS011;23120;52.336;21.182;2022-08-19T02:58:38;11.03;;;9.47;;
17065;SDS011;23120;52.336;21.182;2022-08-19T03:01:05;11.40;;;10.13;;
17065;SDS011;23120;52.336;21.182;2022-08-19T03:03:32;11.00;;;9.90;;
17065;SDS011;23120;52.336;21.182;2022-08-19T03:06:03;12.10;;;10.50;;
17065;SDS011;23120;52.336;21.182;2022-08-19T03:08:36;11.67;;;10.47;;
17065;SDS011;23120;52.336;21.182;2022-08-19T03:11:04;10.57;;;9.60;;
17065;SDS011;23120;52.336;21.182;2022-08-19T03:13:31;11.20;;;10.10;;
17065;SDS011;23120;52.336;21.182;2022-08-19T03:15:58;11.90;;;10.30;;
17065;SDS011;23120;52.336;21.182;2022-08-19T03:18:25;11.50;;;10.33;;
17065;SDS011;23120;52.336;21.182;2022-08-19T03:20:52;13.70;;;10.67;;
17065;SDS011;23120;52.336;21.182;2022-08-19T03:23:19;11.57;;;10.37;;
17065;SDS011;23120;52.336;21.182;2022-08-19T03:25:49;11.33;;;10.23;;
17065;SDS011;23120;52.336;21.182;2022-08-19T03:28:17;11.33;;;10.13;;
17065;SDS011;23120;52.336;21.182;2022-08-19T03:30:54;11.00;;;10.07;;
17065;SDS011;23120;52.336;21.182;2022-08-19T03:33:23;13.13;;;10.00;;
17065;SDS011;23120;52.336;21.182;2022-08-19T03:36:04;13.80;;;10.00;;
17065;SDS011;23120;52.336;21.182;2022-08-19T03:38:34;10.90;;;9.80;;
17065;SDS011;23120;52.336;21.182;2022-08-19T03:41:04;11.93;;;10.07;;
17065;SDS011;23120;52.336;21.182;2022-08-19T03:43:33;10.60;;;9.63;;
17065;SDS011;23120;52.336;21.182;2022-08-19T03:46:01;11.60;;;10.43;;
17065;SDS011;23120;52.336;21.182;2022-08-19T03:48:30;11.40;;;10.40;;
17065;SDS011;23120;52.336;21.182;2022-08-19T03:50:57;11.47;;;10.40;;
17065;SDS011;23120;52.336;21.182;2022-08-19T03:53:25;11.20;;;10.10;;
17065;SDS011;23120;52.336;21.182;2022-08-19T03:55:53;11.43;;;10.20;;
17065;SDS011;23120;52.336;21.182;2022-08-19T03:58:21;10.53;;;9.53;;
17065;SDS011;23120;52.336;21.182;2022-08-19T04:00:48;11.20;;;10.07;;
17065;SDS011;23120;52.336;21.182;2022-08-19T04:03:15;11.77;;;10.37;;
17065;SDS011;23120;52.336;21.182;2022-08-19T04:05:44;11.90;;;10.67;;
17065;SDS011;23120;52.336;21.182;2022-08-19T04:08:11;11.73;;;10.63;;
17065;SDS011;23120;52.336;21.182;2022-08-19T04:10:46;11.43;;;10.43;;
17065;SDS011;23120;52.336;21.182;2022-08-19T04:13:13;13.97;;;10.77;;
17065;SDS011;23120;52.336;21.182;2022-08-19T04:15:42;11.30;;;10.40;;
17065;SDS011;23120;52.336;21.182;2022-08-19T04:18:12;11.83;;;10.63;;
17065;SDS011;23120;52.336;21.182;2022-08-19T04:20:40;11.80;;;10.70;;
17065;SDS011;23120;52.336;21.182;2022-08-19T04:23:09;14.23;;;10.20;;
17065;SDS011;23120;52.336;21.182;2022-08-19T04:25:37;11.67;;;10.57;;
17065;SDS011;23120;52.336;21.182;2022-08-19T04:28:05;12.80;;;10.80;;
17065;SDS011;23120;52.336;21.182;2022-08-19T04:30:37;13.40;;;11.10;;
17065;SDS011;23120;52.336;21.182;2022-08-19T04:33:06;12.37;;;11.07;;
17065;SDS011;23120;52.336;21.182;2022-08-19T04:35:37;11.87;;;10.67;;
17065;SDS011;23120;52.336;21.182;2022-08-19T04:38:05;11.00;;;9.97;;
17065;SDS011;23120;52.336;21.182;2022-08-19T04:40:32;11.57;;;10.40;;
17065;SDS011;23120;52.336;21.182;2022-08-19T04:43:17;12.37;;;11.10;;
17065;SDS011;23120;52.336;21.182;2022-08-19T04:45:46;13.73;;;11.27;;
17065;SDS011;23120;52.336;21.182;2022-08-19T04:48:15;12.20;;;11.10;;
17065;SDS011;23120;52.336;21.182;2022-08-19T04:50:42;11.20;;;10.03;;
17065;SDS011;23120;52.336;21.182;2022-08-19T04:53:10;12.10;;;11.03;;
17065;SDS011;23120;52.336;21.182;2022-08-19T04:55:40;12.53;;;11.20;;
17065;SDS011;23120;52.336;21.182;2022-08-19T04:58:08;13.00;;;11.20;;
17065;SDS011;23120;52.336;21.182;2022-08-19T05:00:37;12.90;;;11.63;;
17065;SDS011;23120;52.336;21.182;2022-08-19T05:03:05;11.33;;;10.30;;
17065;SDS011;23120;52.336;21.182;2022-08-19T05:05:33;15.50;;;10.97;;
17065;SDS011;23120;52.336;21.182;2022-08-19T05:08:05;19.33;;;11.90;;
17065;SDS011;23120;52.336;21.182;2022-08-19T05:10:34;16.13;;;11.07;;
17065;SDS011;23120;52.336;21.182;2022-08-19T05:13:01;13.60;;;11.27;;
17065;SDS011;23120;52.336;21.182;2022-08-19T05:15:29;18.33;;;10.77;;
17065;SDS011;23120;52.336;21.182;2022-08-19T05:17:56;15.90;;;10.90;;
17065;SDS011;23120;52.336;21.182;2022-08-19T05:20:42;13.13;;;10.53;;
17065;SDS011;23120;52.336;21.182;2022-08-19T05:23:26;13.70;;;10.33;;
17065;SDS011;23120;52.336;21.182;2022-08-19T05:25:53;11.30;;;9.33;;
17065;SDS011;23120;52.336;21.182;2022-08-19T05:28:20;11.80;;;9.63;;
17065;SDS011;23120;52.336;21.182;2022-08-19T05:30:47;10.15;;;9.10;;
17065;SDS011;23120;52.336;21.182;2022-08-19T05:33:16;11.52;;;9.38;;
17065;SDS011;23120;52.336;21.182;2022-08-19T05:35:44;16.83;;;10.10;;
17065;SDS011;23120;52.336;21.182;2022-08-19T05:38:11;10.38;;;9.48;;
17065;SDS011;23120;52.336;21.182;2022-08-19T05:40:38;10.82;;;9.75;;
17065;SDS011;23120;52.336;21.182;2022-08-19T05:43:06;9.93;;;8.93;;
17065;SDS011;23120;52.336;21.182;2022-08-19T05:45:37;10.20;;;9.23;;
17065;SDS011;23120;52.336;21.182;2022-08-19T05:48:05;10.23;;;9.32;;
17065;SDS011;23120;52.336;21.182;2022-08-19T05:50:32;12.43;;;9.25;;
17065;SDS011;23120;52.336;21.182;2022-08-19T05:53:00;10.63;;;9.63;;
17065;SDS011;23120;52.336;21.182;2022-08-19T05:55:27;9.60;;;8.73;;
17065;SDS011;23120;52.336;21.182;2022-08-19T05:57:53;10.10;;;9.10;;
17065;SDS011;23120;52.336;21.182;2022-08-19T06:00:20;10.95;;;9.40;;
17065;SDS011;23120;52.336;21.182;2022-08-19T06:02:48;10.38;;;9.20;;
17065;SDS011;23120;52.336;21.182;2022-08-19T06:05:16;12.27;;;8.85;;
17065;SDS011;23120;52.336;21.182;2022-08-19T06:07:43;13.10;;;8.82;;
17065;SDS011;23120;52.336;21.182;2022-08-19T06:10:13;13.82;;;8.77;;
17065;SDS011;23120;52.336;21.182;2022-08-19T06:12:40;10.00;;;9.00;;
17065;SDS011;23120;52.336;21.182;2022-08-19T06:15:08;12.85;;;9.27;;
17065;SDS011;23120;52.336;21.182;2022-08-19T06:17:37;12.70;;;8.88;;
17065;SDS011;23120;52.336;21.182;2022-08-19T06:20:04;15.35;;;9.13;;
17065;SDS011;23120;52.336;21.182;2022-08-19T06:22:36;11.32;;;9.10;;
17065;SDS011;23120;52.336;21.182;2022-08-19T06:25:04;14.93;;;9.48;;
17065;SDS011;23120;52.336;21.182;2022-08-19T06:27:33;11.05;;;9.32;;
17065;SDS011;23120;52.336;21.182;2022-08-19T06:30:00;14.75;;;9.90;;
17065;SDS011;23120;52.336;21.182;2022-08-19T06:32:26;10.32;;;9.15;;
17065;SDS011;23120;52.336;21.182;2022-08-19T06:34:53;10.40;;;9.40;;
17065;SDS011;23120;52.336;21.182;2022-08-19T06:37:20;12.57;;;9.68;;
17065;SDS011;23120;52.336;21.182;2022-08-19T06:39:48;12.23;;;9.13;;
17065;SDS011;23120;52.336;21.182;2022-08-19T06:42:15;10.88;;;9.88;;
17065;SDS011;23120;52.336;21.182;2022-08-19T06:44:45;10.43;;;9.27;;
17065;SDS011;23120;52.336;21.182;2022-08-19T06:47:15;14.48;;;8.75;;
17065;SDS011;23120;52.336;21.182;2022-08-19T06:49:44;10.75;;;8.95;;
17065;SDS011;23120;52.336;21.182;2022-08-19T06:52:12;12.20;;;9.48;;
17065;SDS011;23120;52.336;21.182;2022-08-19T06:54:41;13.18;;;10.15;;
17065;SDS011;23120;52.336;21.182;2022-08-19T06:57:08;11.85;;;8.98;;
17065;SDS011;23120;52.336;21.182;2022-08-19T06:59:40;11.32;;;10.15;;
17065;SDS011;23120;52.336;21.182;2022-08-19T07:02:09;10.45;;;9.50;;
17065;SDS011;23120;52.336;21.182;2022-08-19T07:04:36;14.93;;;8.90;;
17065;SDS011;23120;52.336;21.182;2022-08-19T07:07:04;9.80;;;8.90;;
17065;SDS011;23120;52.336;21.182;2022-08-19T07:09:33;15.10;;;8.90;;
17065;SDS011;23120;52.336;21.182;2022-08-19T07:12:02;11.27;;;9.23;;
17065;SDS011;23120;52.336;21.182;2022-08-19T07:14:30;10.40;;;9.50;;
17065;SDS011;23120;52.336;21.182;2022-08-19T07:16:56;13.23;;;9.82;;
17065;SDS011;23120;52.336;21.182;2022-08-19T07:19:25;10.57;;;8.95;;
17065;SDS011;23120;52.336;21.182;2022-08-19T07:21:53;10.50;;;9.35;;
17065;SDS011;23120;52.336;21.182;2022-08-19T07:24:21;11.63;;;9.38;;
17065;SDS011;23120;52.336;21.182;2022-08-19T07:26:50;10.10;;;9.20;;
17065;SDS011;23120;52.336;21.182;2022-08-19T07:29:18;11.32;;;9.43;;
17065;SDS011;23120;52.336;21.182;2022-08-19T07:31:48;12.68;;;9.30;;
17065;SDS011;23120;52.336;21.182;2022-08-19T07:34:19;8.98;;;8.02;;
17065;SDS011;23120;52.336;21.182;2022-08-19T07:36:48;10.45;;;8.32;;
17065;SDS011;23120;52.336;21.182;2022-08-19T07:39:16;10.70;;;9.68;;
17065;SDS011;23120;52.336;21.182;2022-08-19T07:41:46;10.27;;;8.32;;
17065;SDS011;23120;52.336;21.182;2022-08-19T07:44:14;12.98;;;9.05;;
17065;SDS011;23120;52.336;21.182;2022-08-19T07:46:42;10.43;;;8.82;;
17065;SDS011;23120;52.336;21.182;2022-08-19T07:49:10;8.68;;;7.95;;
17065;SDS011;23120;52.336;21.182;2022-08-19T07:51:42;13.05;;;8.45;;
17065;SDS011;23120;52.336;21.182;2022-08-19T07:54:11;18.85;;;10.05;;
17065;SDS011;23120;52.336;21.182;2022-08-19T07:56:38;22.90;;;11.05;;
17065;SDS011;23120;52.336;21.182;2022-08-19T07:59:05;24.50;;;11.02;;
17065;SDS011;23120;52.336;21.182;2022-08-19T08:01:32;21.08;;;10.88;;
17065;SDS011;23120;52.336;21.182;2022-08-19T08:03:59;15.73;;;9.73;;
17065;SDS011;23120;52.336;21.182;2022-08-19T08:06:44;17.38;;;9.68;;
17065;SDS011;23120;52.336;21.182;2022-08-19T08:09:32;14.43;;;9.02;;
17065;SDS011;23120;52.336;21.182;2022-08-19T08:12:03;10.27;;;9.15;;
17065;SDS011;23120;52.336;21.182;2022-08-19T08:14:33;13.48;;;9.88;;
17065;SDS011;23120;52.336;21.182;2022-08-19T08:17:02;16.45;;;8.82;;
17065;SDS011;23120;52.336;21.182;2022-08-19T08:19:31;10.18;;;9.18;;
17065;SDS011;23120;52.336;21.182;2022-08-19T08:21:58;10.60;;;8.25;;
17065;SDS011;23120;52.336;21.182;2022-08-19T08:24:27;10.18;;;8.40;;
17065;SDS011;23120;52.336;21.182;2022-08-19T08:26:58;13.32;;;8.82;;
17065;SDS011;23120;52.336;21.182;2022-08-19T08:29:26;10.55;;;8.00;;
17065;SDS011;23120;52.336;21.182;2022-08-19T08:31:54;10.13;;;8.68;;
17065;SDS011;23120;52.336;21.182;2022-08-19T08:34:22;11.20;;;8.50;;
17065;SDS011;23120;52.336;21.182;2022-08-19T08:36:48;9.15;;;8.38;;
17065;SDS011;23120;52.336;21.182;2022-08-19T08:39:18;10.15;;;7.85;;
17065;SDS011;23120;52.336;21.182;2022-08-19T08:41:48;8.77;;;7.93;;
17065;SDS011;23120;52.336;21.182;2022-08-19T08:44:32;9.98;;;8.75;;
17065;SDS011;23120;52.336;21.182;2022-08-19T08:47:11;9.30;;;8.13;;
17065;SDS011;23120;52.336;21.182;2022-08-19T08:49:43;10.90;;;8.23;;
17065;SDS011;23120;52.336;21.182;2022-08-19T08:52:15;12.50;;;8.25;;
17065;SDS011;23120;52.336;21.182;2022-08-19T08:54:48;9.30;;;8.27;;
17065;SDS011;23120;52.336;21.182;2022-08-19T08:57:19;10.57;;;8.20;;
17065;SDS011;23120;52.336;21.182;2022-08-19T08:59:51;9.27;;;8.27;;
17065;SDS011;23120;52.336;21.182;2022-08-19T09:02:19;12.57;;;7.88;;
17065;SDS011;23120;52.336;21.182;2022-08-19T09:04:46;12.40;;;8.52;;
17065;SDS011;23120;52.336;21.182;2022-08-19T09:07:17;9.65;;;8.38;;
17065;SDS011;23120;52.336;21.182;2022-08-19T09:10:02;10.77;;;7.88;;
17065;SDS011;23120;52.336;21.182;2022-08-19T09:12:35;9.02;;;8.23;;
17065;SDS011;23120;52.336;21.182;2022-08-19T09:15:11;9.27;;;7.70;;
17065;SDS011;23120;52.336;21.182;2022-08-19T09:17:39;9.25;;;8.25;;
17065;SDS011;23120;52.336;21.182;2022-08-19T09:20:11;19.33;;;8.55;;
17065;SDS011;23120;52.336;21.182;2022-08-19T09:22:42;12.48;;;8.23;;
17065;SDS011;23120;52.336;21.182;2022-08-19T09:25:10;9.02;;;8.23;;
17065;SDS011;23120;52.336;21.182;2022-08-19T09:27:40;8.95;;;7.85;;
17065;SDS011;23120;52.336;21.182;2022-08-19T09:30:11;10.57;;;7.82;;
17065;SDS011;23120;52.336;21.182;2022-08-19T09:32:40;9.55;;;7.97;;
17065;SDS011;23120;52.336;21.182;2022-08-19T09:35:08;14.68;;;8.10;;
17065;SDS011;23120;52.336;21.182;2022-08-19T09:37:35;9.13;;;7.78;;
17065;SDS011;23120;52.336;21.182;2022-08-19T09:40:02;12.25;;;8.20;;
17065;SDS011;23120;52.336;21.182;2022-08-19T09:42:30;10.43;;;7.85;;
17065;SDS011;23120;52.336;21.182;2022-08-19T09:44:57;8.55;;;7.57;;
17065;SDS011;23120;52.336;21.182;2022-08-19T09:47:25;9.80;;;8.02;;
17065;SDS011;23120;52.336;21.182;2022-08-19T09:49:51;14.07;;;8.40;;
17065;SDS011;23120;52.336;21.182;2022-08-19T09:52:19;9.93;;;7.65;;
17065;SDS011;23120;52.336;21.182;2022-08-19T09:54:46;13.85;;;8.05;;
17065;SDS011;23120;52.336;21.182;2022-08-19T09:57:13;10.13;;;7.63;;
17065;SDS011;23120;52.336;21.182;2022-08-19T09:59:39;9.82;;;6.97;;
17065;SDS011;23120;52.336;21.182;2022-08-19T10:02:07;14.27;;;7.38;;
17065;SDS011;23120;52.336;21.182;2022-08-19T10:04:36;8.85;;;7.63;;
17065;SDS011;23120;52.336;21.182;2022-08-19T10:07:20;12.00;;;7.35;;
17065;SDS011;23120;52.336;21.182;2022-08-19T10:09:47;12.23;;;7.15;;
17065;SDS011;23120;52.336;21.182;2022-08-19T10:12:14;11.73;;;6.47;;
17065;SDS011;23120;52.336;21.182;2022-08-19T10:14:41;10.02;;;6.93;;
17065;SDS011;23120;52.336;21.182;2022-08-19T10:17:08;10.73;;;6.95;;
17065;SDS011;23120;52.336;21.182;2022-08-19T10:19:37;10.77;;;7.05;;
17065;SDS011;23120;52.336;21.182;2022-08-19T10:22:04;8.65;;;7.35;;
17065;SDS011;23120;52.336;21.182;2022-08-19T10:24:32;8.77;;;7.25;;
17065;SDS011;23120;52.336;21.182;2022-08-19T10:26:59;11.48;;;6.90;;
17065;SDS011;23120;52.336;21.182;2022-08-19T10:29:28;8.38;;;7.65;;
17065;SDS011;23120;52.336;21.182;2022-08-19T10:31:57;8.65;;;7.45;;
17065;SDS011;23120;52.336;21.182;2022-08-19T10:34:25;11.38;;;6.70;;
17065;SDS011;23120;52.336;21.182;2022-08-19T10:36:56;7.70;;;6.90;;
17065;SDS011;23120;52.336;21.182;2022-08-19T10:39:25;10.27;;;7.05;;
17065;SDS011;23120;52.336;21.182;2022-08-19T10:41:54;8.10;;;6.55;;
17065;SDS011;23120;52.336;21.182;2022-08-19T10:44:21;14.25;;;7.38;;
17065;SDS011;23120;52.336;21.182;2022-08-19T10:46:49;17.63;;;7.43;;
17065;SDS011;23120;52.336;21.182;2022-08-19T10:49:17;16.30;;;6.95;;
17065;SDS011;23120;52.336;21.182;2022-08-19T10:51:45;17.75;;;7.80;;
17065;SDS011;23120;52.336;21.182;2022-08-19T10:54:32;12.65;;;6.40;;
17065;SDS011;23120;52.336;21.182;2022-08-19T10:57:17;8.02;;;6.97;;
17065;SDS011;23120;52.336;21.182;2022-08-19T10:59:44;8.52;;;6.68;;
17065;SDS011;23120;52.336;21.182;2022-08-19T11:02:11;7.97;;;6.63;;
17065;SDS011;23120;52.336;21.182;2022-08-19T11:04:38;9.68;;;6.25;;
17065;SDS011;23120;52.336;21.182;2022-08-19T11:07:06;7.50;;;6.40;;
17065;SDS011;23120;52.336;21.182;2022-08-19T11:09:38;9.85;;;5.85;;
17065;SDS011;23120;52.336;21.182;2022-08-19T11:12:07;6.97;;;5.70;;
17065;SDS011;23120;52.336;21.182;2022-08-19T11:14:34;6.50;;;5.90;;
17065;SDS011;23120;52.336;21.182;2022-08-19T11:17:02;7.88;;;6.72;;
17065;SDS011;23120;52.336;21.182;2022-08-19T11:19:30;7.70;;;6.15;;
17065;SDS011;23120;52.336;21.182;2022-08-19T11:21:58;9.10;;;6.57;;
17065;SDS011;23120;52.336;21.182;2022-08-19T11:24:27;12.20;;;6.50;;
17065;SDS011;23120;52.336;21.182;2022-08-19T11:27:00;10.57;;;6.15;;
17065;SDS011;23120;52.336;21.182;2022-08-19T11:29:29;11.02;;;6.07;;
17065;SDS011;23120;52.336;21.182;2022-08-19T11:31:57;10.43;;;6.53;;
17065;SDS011;23120;52.336;21.182;2022-08-19T11:34:26;7.38;;;5.90;;
17065;SDS011;23120;52.336;21.182;2022-08-19T11:36:54;7.13;;;5.95;;
17065;SDS011;23120;52.336;21.182;2022-08-19T11:39:23;10.85;;;5.60;;
17065;SDS011;23120;52.336;21.182;2022-08-19T11:41:51;11.43;;;4.95;;
17065;SDS011;23120;52.336;21.182;2022-08-19T11:44:20;6.15;;;5.50;;
17065;SDS011;23120;52.336;21.182;2022-08-19T11:46:47;7.90;;;5.53;;
17065;SDS011;23120;52.336;21.182;2022-08-19T11:49:14;8.35;;;5.70;;
17065;SDS011;23120;52.336;21.182;2022-08-19T11:51:43;17.33;;;6.30;;
17065;SDS011;23120;52.336;21.182;2022-08-19T11:54:11;11.15;;;6.22;;
17065;SDS011;23120;52.336;21.182;2022-08-19T11:56:39;9.85;;;5.82;;
17065;SDS011;23120;52.336;21.182;2022-08-19T11:59:06;13.10;;;6.00;;
17065;SDS011;23120;52.336;21.182;2022-08-19T12:01:36;20.52;;;5.93;;
17065;SDS011;23120;52.336;21.182;2022-08-19T12:04:03;14.45;;;6.63;;
17065;SDS011;23120;52.336;21.182;2022-08-19T12:06:31;15.00;;;6.13;;
17065;SDS011;23120;52.336;21.182;2022-08-19T12:09:00;12.35;;;6.20;;
17065;SDS011;23120;52.336;21.182;2022-08-19T12:11:29;14.88;;;6.57;;
17065;SDS011;23120;52.336;21.182;2022-08-19T12:13:56;13.02;;;6.00;;
17065;SDS011;23120;52.336;21.182;2022-08-19T12:16:24;12.05;;;6.00;;
17065;SDS011;23120;52.336;21.182;2022-08-19T12:18:54;8.52;;;5.72;;
17065;SDS011;23120;52.336;21.182;2022-08-19T12:21:23;8.10;;;5.97;;
17065;SDS011;23120;52.336;21.182;2022-08-19T12:23:54;9.15;;;5.10;;
17065;SDS011;23120;52.336;21.182;2022-08-19T12:26:22;10.73;;;5.80;;
17065;SDS011;23120;52.336;21.182;2022-08-19T12:28:50;14.45;;;6.10;;
17065;SDS011;23120;52.336;21.182;2022-08-19T12:31:17;10.18;;;5.38;;
17065;SDS011;23120;52.336;21.182;2022-08-19T12:33:44;8.32;;;5.22;;
17065;SDS011;23120;52.336;21.182;2022-08-19T12:36:13;7.38;;;5.72;;
17065;SDS011;23120;52.336;21.182;2022-08-19T12:38:42;15.05;;;6.03;;
17065;SDS011;23120;52.336;21.182;2022-08-19T12:41:10;8.68;;;5.65;;
17065;SDS011;23120;52.336;21.182;2022-08-19T12:43:39;12.48;;;5.20;;
17065;SDS011;23120;52.336;21.182;2022-08-19T12:46:07;10.90;;;5.95;;
17065;SDS011;23120;52.336;21.182;2022-08-19T12:48:36;9.57;;;5.30;;
17065;SDS011;23120;52.336;21.182;2022-08-19T12:51:06;18.13;;;5.57;;
17065;SDS011;23120;52.336;21.182;2022-08-19T12:53:35;18.27;;;5.40;;
17065;SDS011;23120;52.336;21.182;2022-08-19T12:56:02;9.02;;;4.88;;
17065;SDS011;23120;52.336;21.182;2022-08-19T12:58:30;8.05;;;5.30;;
17065;SDS011;23120;52.336;21.182;2022-08-19T13:00:59;11.77;;;5.25;;
17065;SDS011;23120;52.336;21.182;2022-08-19T13:03:31;12.75;;;5.03;;
17065;SDS011;23120;52.336;21.182;2022-08-19T13:05:58;11.52;;;5.38;;
17065;SDS011;23120;52.336;21.182;2022-08-19T13:08:25;8.70;;;4.78;;
17065;SDS011;23120;52.336;21.182;2022-08-19T13:10:53;9.30;;;4.85;;
17065;SDS011;23120;52.336;21.182;2022-08-19T13:13:20;10.52;;;4.63;;
17065;SDS011;23120;52.336;21.182;2022-08-19T13:15:47;8.98;;;4.82;;
17065;SDS011;23120;52.336;21.182;2022-08-19T13:18:14;11.15;;;4.75;;
17065;SDS011;23120;52.336;21.182;2022-08-19T13:20:41;7.80;;;4.63;;
17065;SDS011;23120;52.336;21.182;2022-08-19T13:23:08;7.65;;;4.50;;
17065;SDS011;23120;52.336;21.182;2022-08-19T13:25:36;9.05;;;4.85;;
17065;SDS011;23120;52.336;21.182;2022-08-19T13:28:04;9.10;;;4.90;;
17065;SDS011;23120;52.336;21.182;2022-08-19T13:30:31;7.65;;;4.40;;
17065;SDS011;23120;52.336;21.182;2022-08-19T13:33:16;9.43;;;4.65;;
17065;SDS011;23120;52.336;21.182;2022-08-19T13:35:45;7.80;;;4.55;;
17065;SDS011;23120;52.336;21.182;2022-08-19T13:38:15;8.38;;;4.88;;
17065;SDS011;23120;52.336;21.182;2022-08-19T13:40:44;5.70;;;4.55;;
17065;SDS011;23120;52.336;21.182;2022-08-19T13:43:13;7.97;;;4.93;;
17065;SDS011;23120;52.336;21.182;2022-08-19T13:45:40;11.80;;;4.78;;
17065;SDS011;23120;52.336;21.182;2022-08-19T13:48:07;6.07;;;5.28;;
17065;SDS011;23120;52.336;21.182;2022-08-19T13:50:37;9.15;;;4.72;;
17065;SDS011;23120;52.336;21.182;2022-08-19T13:53:06;13.10;;;4.60;;
17065;SDS011;23120;52.336;21.182;2022-08-19T13:55:34;8.73;;;4.25;;
17065;SDS011;23120;52.336;21.182;2022-08-19T13:58:03;7.30;;;4.80;;
17065;SDS011;23120;52.336;21.182;2022-08-19T14:00:32;9.80;;;4.85;;
17065;SDS011;23120;52.336;21.182;2022-08-19T14:03:01;7.57;;;4.30;;
17065;SDS011;23120;52.336;21.182;2022-08-19T14:05:29;13.70;;;4.65;;
17065;SDS011;23120;52.336;21.182;2022-08-19T14:07:56;10.45;;;4.55;;
17065;SDS011;23120;52.336;21.182;2022-08-19T14:10:24;6.07;;;4.55;;
17065;SDS011;23120;52.336;21.182;2022-08-19T14:12:53;6.68;;;5.25;;
17065;SDS011;23120;52.336;21.182;2022-08-19T14:15:23;7.72;;;4.95;;
17065;SDS011;23120;52.336;21.182;2022-08-19T14:17:52;7.93;;;5.07;;
17065;SDS011;23120;52.336;21.182;2022-08-19T14:20:20;10.25;;;5.57;;
17065;SDS011;23120;52.336;21.182;2022-08-19T14:22:47;6.95;;;4.90;;
17065;SDS011;23120;52.336;21.182;2022-08-19T14:25:16;10.82;;;4.88;;
17065;SDS011;23120;52.336;21.182;2022-08-19T14:27:45;8.10;;;4.80;;
17065;SDS011;23120;52.336;21.182;2022-08-19T14:30:14;10.70;;;5.10;;